Time;durP1;ratioP1;P1;durP2;ratioP2;P2;SDS_P1;SDS_P2;PMS_P1;PMS_P2;Temp;Humidity;BMP_temperature;BMP_pressure;BME280_temperature;BME280_humidity;BME280_pressure;Samples;Min_cycle;Max_cycle;Signal;HPM_P1;HPM_P2
2022/08/30 00:02:10;;;;;;;10.82;8.32;;;;;;;19.63;100.00;96603.22;5018450;28;20073;-47
2022/08/30 00:04:39;;;;;;;14.18;8.20;;;;;;;19.44;100.00;96598.56;5022054;28;20050;-52
2022/08/30 00:07:07;;;;;;;10.05;7.97;;;;;;;19.71;100.00;96596.06;5021391;28;20070;-47
2022/08/30 00:09:35;;;;;;;10.85;7.28;;;;;;;19.63;100.00;96592.53;5023288;28;20562;-50
2022/08/30 00:12:04;;;;;;;10.07;6.65;;;;;;;19.60;100.00;96595.56;5021546;28;20082;-50
2022/08/30 00:14:32;;;;;;;9.43;6.78;;;;;;;19.62;100.00;96592.72;5022344;28;20088;-52
2022/08/30 00:17:01;;;;;;;10.25;7.53;;;;;;;19.47;100.00;96590.16;5021049;28;20073;-49
2022/08/30 00:19:30;;;;;;;12.25;8.25;;;;;;;19.51;100.00;96595.91;5023653;28;20088;-48
2022/08/30 00:21:59;;;;;;;11.23;8.23;;;;;;;19.66;100.00;96592.13;5021827;28;20091;-52
2022/08/30 00:24:28;;;;;;;10.95;8.25;;;;;;;19.60;100.00;96592.91;5016308;28;20081;-57
2022/08/30 00:26:56;;;;;;;10.57;8.20;;;;;;;19.37;100.00;96589.66;5021946;28;20084;-47
2022/08/30 00:29:24;;;;;;;10.27;7.90;;;;;;;19.48;100.00;96594.50;5022056;28;20077;-49
2022/08/30 00:31:53;;;;;;;10.68;8.15;;;;;;;19.44;100.00;96591.38;5018597;28;20428;-52
2022/08/30 00:34:21;;;;;;;10.38;8.90;;;;;;;19.63;100.00;96586.34;5020868;28;20086;-52
2022/08/30 00:36:51;;;;;;;13.30;9.38;;;;;;;19.71;100.00;96578.16;5020442;28;20077;-54
2022/08/30 00:39:19;;;;;;;11.00;8.98;;;;;;;19.50;100.00;96583.59;5020169;28;20081;-49
2022/08/30 00:41:47;;;;;;;11.68;8.93;;;;;;;19.19;100.00;96582.97;5017838;28;20085;-53
2022/08/30 00:44:16;;;;;;;11.40;9.23;;;;;;;19.03;100.00;96582.44;5017335;28;22143;-50
2022/08/30 00:46:44;;;;;;;11.90;8.68;;;;;;;19.13;100.00;96578.44;5015110;28;20091;-50
2022/08/30 00:49:13;;;;;;;10.50;8.68;;;;;;;19.29;100.00;96584.50;5017489;28;20049;-47
2022/08/30 00:51:42;;;;;;;11.38;8.90;;;;;;;19.26;100.00;96582.22;5015820;28;20106;-47
2022/08/30 00:54:12;;;;;;;11.18;7.25;;;;;;;19.42;100.00;96574.69;5014785;28;20590;-51
2022/08/30 00:56:40;;;;;;;16.75;7.43;;;;;;;19.44;100.00;96579.84;5017850;28;20081;-50
2022/08/30 00:59:09;;;;;;;12.05;7.22;;;;;;;19.48;100.00;96574.91;5020030;28;20081;-47
2022/08/30 01:01:38;;;;;;;10.27;6.72;;;;;;;19.38;100.00;96575.31;5017075;28;20468;-51
2022/08/30 01:04:08;;;;;;;13.70;7.95;;;;;;;19.39;100.00;96576.94;5016930;28;20081;-49
2022/08/30 01:06:38;;;;;;;9.38;7.32;;;;;;;19.37;100.00;96578.97;5017490;28;20684;-47
2022/08/30 01:09:08;;;;;;;7.65;6.45;;;;;;;19.17;100.00;96579.69;5020908;28;20085;-50
2022/08/30 01:11:38;;;;;;;6.50;5.13;;;;;;;18.84;100.00;96582.13;5018993;28;20077;-48
2022/08/30 01:14:07;;;;;;;7.57;4.10;;;;;;;18.94;100.00;96579.94;5021252;28;20077;-49
2022/08/30 01:16:36;;;;;;;5.28;3.38;;;;;;;18.80;100.00;96574.69;5020644;28;20081;-51
2022/08/30 01:19:06;;;;;;;5.47;3.50;;;;;;;18.80;100.00;96583.53;5015237;28;20099;-53
2022/08/30 01:21:42;;;;;;;5.78;3.80;;;;;;;18.77;100.00;96570.56;5021264;28;20631;-52
2022/08/30 01:24:12;;;;;;;6.00;4.60;;;;;;;18.62;100.00;96577.81;5018318;28;20463;-52
2022/08/30 01:26:41;;;;;;;7.65;5.07;;;;;;;18.64;100.00;96579.25;5015050;28;20081;-50
2022/08/30 01:29:11;;;;;;;6.75;5.28;;;;;;;18.60;100.00;96574.47;5017730;28;20084;-54
2022/08/30 01:31:40;;;;;;;;;;;;;;;18.81;100.00;96581.69;5021012;28;20528;-56
2022/08/30 01:34:08;;;;;;;7.20;5.38;;;;;;;18.97;100.00;96582.22;5019703;28;19967;-54
2022/08/30 01:36:38;;;;;;;7.47;4.40;;;;;;;18.95;100.00;96576.22;5016154;28;20483;-51
2022/08/30 01:39:15;;;;;;;10.13;4.97;;;;;;;18.91;100.00;96577.66;5018130;28;20088;-50
2022/08/30 01:41:44;;;;;;;7.10;5.35;;;;;;;18.87;100.00;96575.56;5020580;28;20081;-52
2022/08/30 01:44:13;;;;;;;8.02;5.75;;;;;;;18.99;100.00;96576.66;5022529;28;20132;-52
2022/08/30 01:46:46;;;;;;;9.10;6.00;;;;;;;18.87;100.00;96572.91;5016154;28;20092;-52
2022/08/30 01:49:18;;;;;;;8.63;6.38;;;;;;;18.86;100.00;96576.59;5023799;28;20488;-55
2022/08/30 01:51:54;;;;;;;10.40;7.70;;;;;;;18.71;100.00;96585.50;5032392;28;20081;-53
2022/08/30 01:54:30;;;;;;;9.93;7.75;;;;;;;18.59;100.00;96580.84;5029023;28;20088;-50
2022/08/30 01:57:08;;;;;;;11.50;8.07;;;;;;;18.56;100.00;96586.56;5031931;28;20096;-50
2022/08/30 01:59:38;;;;;;;12.63;8.30;;;;;;;18.75;100.00;96583.25;5026529;28;20076;-50
2022/08/30 02:02:07;;;;;;;10.33;8.13;;;;;;;18.49;100.00;96586.50;5028439;28;20077;-57
2022/08/30 02:04:36;;;;;;;12.65;8.55;;;;;;;18.28;100.00;96587.34;5024476;28;20082;-50
2022/08/30 02:07:04;;;;;;;11.45;8.70;;;;;;;18.57;100.00;96586.38;5032724;28;20544;-51
2022/08/30 02:09:34;;;;;;;12.43;8.82;;;;;;;18.34;100.00;96583.91;5031253;28;20077;-52
2022/08/30 02:12:03;;;;;;;14.25;10.05;;;;;;;18.08;100.00;96589.78;5026621;28;20092;-50
2022/08/30 02:14:32;;;;;;;11.77;9.00;;;;;;;18.56;100.00;96586.56;5024130;28;20419;-52
2022/08/30 02:17:01;;;;;;;18.90;7.78;;;;;;;18.74;100.00;96584.28;5020080;28;20092;-54
2022/08/30 02:19:30;;;;;;;13.13;6.47;;;;;;;18.35;100.00;96588.22;5021438;28;20095;-51
2022/08/30 02:21:58;;;;;;;15.43;7.47;;;;;;;18.52;100.00;96590.66;5018725;28;20226;-53
2022/08/30 02:24:27;;;;;;;14.18;6.45;;;;;;;18.59;100.00;96583.53;5018082;28;20089;-51
2022/08/30 02:26:56;;;;;;;14.20;6.60;;;;;;;18.68;100.00;96582.34;5020906;28;20069;-57
2022/08/30 02:29:25;;;;;;;13.00;6.80;;;;;;;18.45;100.00;96586.06;5020758;28;20132;-50
2022/08/30 02:31:54;;;;;;;9.07;6.38;;;;;;;18.38;100.00;96582.50;5019705;28;20459;-50
2022/08/30 02:34:22;;;;;;;10.43;6.25;;;;;;;18.30;100.00;96581.78;5024708;28;20080;-52
2022/08/30 02:36:50;;;;;;;13.50;6.97;;;;;;;18.41;100.00;96575.94;5019442;28;20077;-54
2022/08/30 02:39:19;;;;;;;12.93;7.10;;;;;;;18.37;100.00;96582.69;5026657;28;20081;-52
2022/08/30 02:41:47;;;;;;;12.70;7.57;;;;;;;18.13;100.00;96574.03;5024572;28;20561;-54
2022/08/30 02:44:17;;;;;;;14.27;7.28;;;;;;;17.92;100.00;96592.66;5020846;28;20078;-52
2022/08/30 02:46:46;;;;;;;15.70;8.90;;;;;;;18.26;100.00;96582.16;5025396;28;20080;-49
2022/08/30 02:49:15;;;;;;;16.20;7.40;;;;;;;18.24;100.00;96581.56;5028082;28;20088;-51
2022/08/30 02:52:01;;;;;;;9.50;6.70;;;;;;;18.35;100.00;96580.22;5023906;28;20085;-53
2022/08/30 02:54:31;;;;;;;10.27;6.22;;;;;;;18.47;100.00;96585.88;5021224;28;20555;-52
2022/08/30 02:57:03;;;;;;;10.40;7.05;;;;;;;18.40;100.00;96579.63;5021211;28;20535;-49
2022/08/30 02:59:36;;;;;;;10.70;7.07;;;;;;;18.47;100.00;96584.00;5024453;28;20081;-51
2022/08/30 03:02:06;;;;;;;8.35;4.47;;;;;;;18.41;100.00;96589.28;5024735;28;20092;-51
2022/08/30 03:04:34;;;;;;;8.07;5.18;;;;;;;18.34;100.00;96581.25;5024108;28;20092;-48
2022/08/30 03:07:02;;;;;;;8.63;5.80;;;;;;;17.69;100.00;96596.28;5025636;28;20104;-51
2022/08/30 03:09:31;;;;;;;10.98;5.60;;;;;;;17.44;100.00;96608.22;5026611;28;20487;-51
2022/08/30 03:11:59;;;;;;;6.85;5.25;;;;;;;17.56;100.00;96604.94;5023685;28;20089;-55
2022/08/30 03:14:28;;;;;;;4.70;3.92;;;;;;;17.76;100.00;96602.56;5018983;28;20073;-55
2022/08/30 03:16:58;;;;;;;4.75;4.18;;;;;;;17.76;100.00;96607.06;5024536;28;20104;-48
2022/08/30 03:19:26;;;;;;;4.88;4.25;;;;;;;17.54;100.00;96608.78;5023952;28;20077;-48
2022/08/30 03:21:55;;;;;;;8.10;5.97;;;;;;;17.41;100.00;96606.78;5022916;28;20085;-51
2022/08/30 03:24:23;;;;;;;7.03;5.05;;;;;;;17.50;100.00;96611.00;5024261;28;20073;-49
2022/08/30 03:26:52;;;;;;;6.45;5.40;;;;;;;17.47;100.00;96610.53;5023335;28;20081;-47
2022/08/30 03:29:21;;;;;;;6.63;5.47;;;;;;;17.65;100.00;96599.47;5026226;28;20081;-51
2022/08/30 03:31:51;;;;;;;6.45;5.50;;;;;;;17.66;100.00;96612.66;5015877;28;20081;-49
2022/08/30 03:34:22;;;;;;;7.93;5.15;;;;;;;17.91;100.00;96604.38;5018723;28;20117;-51
2022/08/30 03:36:52;;;;;;;9.00;5.85;;;;;;;17.79;100.00;96607.53;5019698;28;20104;-51
2022/08/30 03:39:22;;;;;;;9.90;6.00;;;;;;;17.69;100.00;96609.63;5020749;28;20484;-50
2022/08/30 03:41:50;;;;;;;8.05;6.43;;;;;;;17.70;100.00;96595.25;5016895;28;20076;-47
2022/08/30 03:44:19;;;;;;;9.52;7.15;;;;;;;17.83;100.00;96596.47;5023489;28;20077;-52
2022/08/30 03:46:49;;;;;;;8.68;6.97;;;;;;;17.68;100.00;96586.59;5018270;28;20057;-49
2022/08/30 03:49:18;;;;;;;10.90;7.40;;;;;;;17.89;100.00;96588.53;5018289;28;20467;-54
2022/08/30 03:51:48;;;;;;;9.30;7.50;;;;;;;17.53;100.00;96591.13;5020638;28;20081;-46
2022/08/30 03:54:17;;;;;;;12.13;8.63;;;;;;;17.42;100.00;96595.09;5014423;28;20073;-54
2022/08/30 03:56:46;;;;;;;13.77;9.50;;;;;;;17.36;100.00;96590.50;5022833;28;20081;-51
2022/08/30 03:59:14;;;;;;;13.05;9.57;;;;;;;17.51;100.00;96593.16;5017227;28;20097;-54
2022/08/30 04:01:44;;;;;;;16.17;10.82;;;;;;;17.33;100.00;96591.69;5020491;28;20822;-50
2022/08/30 04:04:13;;;;;;;14.98;12.05;;;;;;;17.39;100.00;96592.78;5015582;28;20065;-48
2022/08/30 04:06:49;;;;;;;15.82;11.75;;;;;;;16.89;100.00;96593.47;5015095;28;20069;-47
2022/08/30 04:09:18;;;;;;;23.02;12.32;;;;;;;16.81;100.00;96594.38;5017803;28;20107;-46
2022/08/30 04:11:46;;;;;;;22.23;15.57;;;;;;;16.78;100.00;96603.56;5021666;28;20080;-52
2022/08/30 04:14:15;;;;;;;19.83;14.75;;;;;;;17.11;100.00;96597.09;5029057;28;20626;-55
2022/08/30 04:16:43;;;;;;;20.55;13.32;;;;;;;17.17;100.00;96607.88;5030135;28;20073;-50
2022/08/30 04:19:12;;;;;;;18.48;12.43;;;;;;;17.21;100.00;96606.50;5029924;28;20077;-47
2022/08/30 04:21:40;;;;;;;17.00;13.27;;;;;;;17.46;100.00;96611.56;5029407;28;20547;-49
2022/08/30 04:24:12;;;;;;;19.23;13.70;;;;;;;17.48;100.00;96609.50;5027827;28;20080;-50
2022/08/30 04:26:40;;;;;;;18.30;11.52;;;;;;;17.62;100.00;96611.38;5029712;28;20104;-53
2022/08/30 04:29:10;;;;;;;17.88;11.10;;;;;;;17.62;100.00;96621.19;5029932;28;20045;-48
2022/08/30 04:31:38;;;;;;;17.75;11.43;;;;;;;17.07;100.00;96623.28;5029218;28;20479;-49
2022/08/30 04:34:08;;;;;;;15.05;10.82;;;;;;;17.29;100.00;96622.38;5029693;28;20085;-51
2022/08/30 04:36:36;;;;;;;16.10;11.10;;;;;;;17.29;100.00;96629.56;5029546;28;20080;-48
2022/08/30 04:39:06;;;;;;;18.55;12.05;;;;;;;17.22;100.00;96623.31;5028044;28;20088;-50
2022/08/30 04:41:38;;;;;;;17.17;12.35;;;;;;;17.38;100.00;96624.94;5029428;28;20092;-50
2022/08/30 04:44:07;;;;;;;18.65;13.48;;;;;;;17.62;100.00;96623.84;5029735;28;20073;-50
2022/08/30 04:46:41;;;;;;;17.48;12.75;;;;;;;17.53;100.00;96634.63;5026187;28;20088;-48
2022/08/30 04:49:11;;;;;;;18.10;13.63;;;;;;;17.58;100.00;96634.06;5026183;28;20079;-54
2022/08/30 04:51:40;;;;;;;19.98;13.52;;;;;;;17.65;100.00;96631.47;5028259;28;20084;-49
2022/08/30 04:54:08;;;;;;;26.42;14.05;;;;;;;17.78;100.00;96634.38;5028181;28;20084;-52
2022/08/30 04:56:38;;;;;;;23.60;14.50;;;;;;;17.94;100.00;96630.69;5029463;28;20473;-53
2022/08/30 04:59:06;;;;;;;28.42;15.00;;;;;;;17.83;100.00;96642.66;5029802;28;20084;-47
2022/08/30 05:01:35;;;;;;;24.98;15.40;;;;;;;18.04;100.00;96636.56;5024890;28;20127;-53
2022/08/30 05:04:13;;;;;;;24.38;15.18;;;;;;;18.27;100.00;96639.91;5029053;28;20077;-47
2022/08/30 05:06:42;;;;;;;19.50;14.05;;;;;;;18.16;100.00;96648.38;5022915;28;20072;-52
2022/08/30 05:09:10;;;;;;;21.42;13.65;;;;;;;18.52;100.00;96647.56;5029440;28;20103;-49
2022/08/30 05:11:42;;;;;;;18.52;12.00;;;;;;;19.21;100.00;96645.13;5029107;28;20107;-49
2022/08/30 05:14:10;;;;;;;17.92;11.38;;;;;;;19.75;100.00;96654.34;5029704;28;20084;-50
2022/08/30 05:16:40;;;;;;;20.50;11.15;;;;;;;20.06;100.00;96650.38;5028468;28;20084;-49
2022/08/30 05:19:08;;;;;;;20.57;10.67;;;;;;;20.37;100.00;96648.03;5027363;28;20124;-48
2022/08/30 05:21:39;;;;;;;12.80;9.90;;;;;;;20.90;100.00;96643.84;5024247;28;20084;-52
2022/08/30 05:24:08;;;;;;;17.17;9.75;;;;;;;20.29;100.00;96647.38;5029424;28;20088;-48
2022/08/30 05:26:39;;;;;;;13.55;9.70;;;;;;;19.69;100.00;96652.47;5028478;28;20109;-50
2022/08/30 05:29:08;;;;;;;11.43;8.93;;;;;;;20.02;100.00;96652.63;5028647;28;20077;-51
2022/08/30 05:31:36;;;;;;;13.00;9.73;;;;;;;19.75;100.00;96653.50;5028250;28;20095;-49
2022/08/30 05:34:05;;;;;;;11.45;9.80;;;;;;;19.59;100.00;96654.63;5026157;28;20091;-54
2022/08/30 05:36:35;;;;;;;14.13;9.48;;;;;;;20.06;100.00;96650.38;5028214;28;20081;-49
2022/08/30 05:39:03;;;;;;;12.43;10.00;;;;;;;19.82;100.00;96657.91;5028988;28;20092;-51
2022/08/30 05:41:33;;;;;;;11.77;9.70;;;;;;;19.84;100.00;96655.81;5027946;28;20096;-51
2022/08/30 05:44:07;;;;;;;11.40;9.55;;;;;;;19.84;100.00;96653.16;5022235;28;20515;-51
2022/08/30 05:46:36;;;;;;;12.43;8.77;;;;;;;20.15;100.00;96650.00;5023301;28;20084;-47
2022/08/30 05:49:07;;;;;;;12.70;10.00;;;;;;;20.45;100.00;96652.38;5025282;28;20108;-48
2022/08/30 05:51:37;;;;;;;12.63;10.50;;;;;;;20.47;100.00;96650.31;5028170;28;20081;-49
2022/08/30 05:54:11;;;;;;;12.75;9.90;;;;;;;20.14;100.00;96651.03;5023734;28;20077;-50
2022/08/30 05:56:41;;;;;;;12.10;10.02;;;;;;;19.89;100.00;96661.44;5028992;28;20141;-50
2022/08/30 05:59:12;;;;;;;12.65;10.40;;;;;;;20.25;100.00;96652.31;5028882;28;20092;-51
2022/08/30 06:01:42;;;;;;;15.30;11.02;;;;;;;20.58;100.00;96657.81;5025683;28;20077;-51
2022/08/30 06:04:12;;;;;;;17.13;11.25;;;;;;;21.00;100.00;96649.63;5028834;28;20092;-51
2022/08/30 06:06:43;;;;;;;13.65;10.35;;;;;;;21.18;100.00;96655.19;5028783;28;20077;-52
2022/08/30 06:09:12;;;;;;;14.27;10.85;;;;;;;21.11;100.00;96657.03;5028582;28;20081;-55
2022/08/30 06:11:41;;;;;;;15.88;12.05;;;;;;;20.71;100.00;96656.97;5027987;28;20069;-56
2022/08/30 06:14:11;;;;;;;15.35;12.30;;;;;;;20.85;100.00;96660.50;5028774;28;20087;-52
2022/08/30 06:16:40;;;;;;;15.52;12.02;;;;;;;21.64;100.00;96665.06;5027971;28;20077;-54
2022/08/30 06:19:09;;;;;;;14.98;12.50;;;;;;;21.75;100.00;96672.50;5028319;28;20066;-53
2022/08/30 06:21:39;;;;;;;16.08;12.55;;;;;;;21.95;100.00;96671.59;5027907;28;20124;-51
2022/08/30 06:24:09;;;;;;;15.95;12.55;;;;;;;21.62;100.00;96658.28;5028949;28;20080;-54
2022/08/30 06:26:40;;;;;;;14.88;12.32;;;;;;;22.21;100.00;96657.28;5028307;28;20077;-54
2022/08/30 06:29:11;;;;;;;14.38;12.27;;;;;;;21.69;100.00;96664.44;5028286;28;20085;-54
2022/08/30 06:31:39;;;;;;;17.67;12.15;;;;;;;21.48;100.00;96660.97;5026499;28;20077;-55
2022/08/30 06:34:08;;;;;;;15.05;12.05;;;;;;;22.66;100.00;96652.72;5030103;28;20096;-56
2022/08/30 06:36:37;;;;;;;16.02;12.38;;;;;;;22.62;100.00;96651.50;5031981;28;20092;-53
2022/08/30 06:39:06;;;;;;;16.42;13.07;;;;;;;22.29;100.00;96659.72;5031794;28;20109;-47
2022/08/30 06:41:36;;;;;;;16.65;14.10;;;;;;;23.03;100.00;96650.22;5020919;28;20476;-53
2022/08/30 06:44:05;;;;;;;;;;;;;;;23.37;100.00;96653.47;5026465;28;20077;-52
2022/08/30 06:46:37;;;;;;;17.45;13.13;;;;;;;23.77;100.00;96651.22;5031526;28;19956;-49
2022/08/30 06:49:06;;;;;;;18.77;13.30;;;;;;;23.85;100.00;96650.97;5031428;28;20096;-51
2022/08/30 06:51:36;;;;;;;14.65;12.65;;;;;;;23.62;100.00;96653.44;5025011;28;20077;-51
2022/08/30 06:54:07;;;;;;;16.55;13.57;;;;;;;23.68;100.00;96652.59;5031636;28;20545;-49
2022/08/30 06:56:40;;;;;;;15.70;12.60;;;;;;;23.75;100.00;96649.84;5031276;28;20081;-51
2022/08/30 06:59:23;;;;;;;17.15;14.13;;;;;;;23.17;100.00;96654.47;5025598;28;20103;-52
2022/08/30 07:01:53;;;;;;;15.15;13.38;;;;;;;24.00;100.00;96653.28;5031178;28;20089;-53
2022/08/30 07:04:21;;;;;;;16.85;13.40;;;;;;;24.36;100.00;96662.38;5031328;28;20080;-53
2022/08/30 07:06:49;;;;;;;16.20;12.98;;;;;;;24.01;100.00;96659.47;5031635;28;20085;-55
2022/08/30 07:09:18;;;;;;;18.02;13.77;;;;;;;24.69;100.00;96663.84;5031277;28;20096;-53
2022/08/30 07:11:50;;;;;;;19.02;14.35;;;;;;;24.29;100.00;96662.44;5028123;28;20085;-53
2022/08/30 07:14:19;;;;;;;19.35;14.48;;;;;;;24.82;100.00;96659.09;5029517;28;20081;-49
2022/08/30 07:16:47;;;;;;;19.08;14.90;;;;;;;25.13;100.00;96667.16;5031275;28;20105;-51
2022/08/30 07:19:21;;;;;;;17.65;14.40;;;;;;;25.41;100.00;96655.69;5031057;28;20095;-47
2022/08/30 07:21:50;;;;;;;18.30;14.68;;;;;;;25.14;100.00;96655.31;5030619;28;20583;-52
2022/08/30 07:24:19;;;;;;;18.73;14.80;;;;;;;24.81;100.00;96657.44;5031517;28;20088;-50
2022/08/30 07:26:50;;;;;;;19.38;14.15;;;;;;;25.08;100.00;96647.03;5030309;28;20073;-50
2022/08/30 07:29:20;;;;;;;18.67;14.20;;;;;;;24.95;100.00;96649.13;5026060;28;20084;-49
2022/08/30 07:31:48;;;;;;;18.08;14.63;;;;;;;24.91;100.00;96651.47;5024369;28;20049;-49
2022/08/30 07:34:18;;;;;;;17.42;14.38;;;;;;;25.53;100.00;96651.97;5024644;28;20092;-52
2022/08/30 07:36:50;;;;;;;17.08;14.35;;;;;;;25.84;100.00;96665.34;5025175;28;20092;-54
2022/08/30 07:39:19;;;;;;;18.23;14.63;;;;;;;26.23;100.00;96658.38;5027571;28;20559;-49
2022/08/30 07:41:49;;;;;;;16.52;13.57;;;;;;;26.55;100.00;96658.75;5029903;28;20088;-49
2022/08/30 07:44:18;;;;;;;17.90;14.85;;;;;;;26.03;100.00;96658.75;5029538;28;20081;-53
2022/08/30 07:46:52;;;;;;;19.77;14.05;;;;;;;26.63;100.00;96644.00;5030342;28;20072;-51
2022/08/30 07:49:20;;;;;;;17.98;13.52;;;;;;;26.33;100.00;96653.16;5030295;28;20640;-53
2022/08/30 07:51:50;;;;;;;19.65;13.25;;;;;;;26.25;100.00;96650.81;5030445;28;20528;-49
2022/08/30 07:54:19;;;;;;;17.80;13.10;;;;;;;26.22;100.00;96656.69;5030430;28;20088;-50
2022/08/30 07:56:47;;;;;;;17.42;13.35;;;;;;;26.58;100.00;96644.75;5029803;28;20064;-50
2022/08/30 07:59:16;;;;;;;16.83;12.20;;;;;;;25.99;100.00;96649.47;5030819;28;20077;-53
2022/08/30 08:01:44;;;;;;;15.23;11.73;;;;;;;26.15;100.00;96654.16;5029969;28;20827;-49
2022/08/30 08:04:12;;;;;;;13.50;11.70;;;;;;;26.77;100.00;96644.53;5030486;28;20557;-53
2022/08/30 08:06:41;;;;;;;15.00;12.52;;;;;;;26.21;100.00;96650.47;5030577;28;20077;-53
2022/08/30 08:09:10;;;;;;;14.85;11.77;;;;;;;26.81;100.00;96646.53;5028911;28;20085;-52
2022/08/30 08:11:40;;;;;;;18.25;12.80;;;;;;;26.81;100.00;96637.59;5029605;28;20088;-48
2022/08/30 08:14:09;;;;;;;15.57;12.00;;;;;;;26.47;100.00;96648.31;5030407;28;20535;-50
2022/08/30 08:16:38;;;;;;;14.40;12.07;;;;;;;26.44;100.00;96648.78;5030217;28;20496;-52
2022/08/30 08:19:07;;;;;;;16.73;12.15;;;;;;;26.71;100.00;96638.22;5030409;28;20546;-47
2022/08/30 08:21:36;;;;;;;12.88;11.13;;;;;;;26.98;100.00;96641.16;5029627;28;20073;-53
2022/08/30 08:24:05;;;;;;;12.88;10.85;;;;;;;27.09;100.00;96642.97;5029321;28;20081;-48
2022/08/30 08:26:36;;;;;;;14.55;11.30;;;;;;;27.23;100.00;96648.91;5029611;28;20145;-48
2022/08/30 08:29:05;;;;;;;12.85;10.50;;;;;;;27.45;100.00;96646.25;5029974;28;20081;-51
2022/08/30 08:31:34;;;;;;;15.27;11.67;;;;;;;26.93;100.00;96644.56;5027378;28;20081;-48
2022/08/30 08:34:04;;;;;;;13.82;10.10;;;;;;;28.12;100.00;96642.63;5023374;28;20077;-54
2022/08/30 08:36:34;;;;;;;15.00;11.18;;;;;;;28.07;100.00;96637.94;5025145;28;20081;-52
2022/08/30 08:39:04;;;;;;;12.85;10.40;;;;;;;28.33;100.00;96635.56;5029541;28;20518;-54
2022/08/30 08:41:42;;;;;;;13.80;11.07;;;;;;;28.26;100.00;96635.75;5022747;28;20072;-55
2022/08/30 08:44:15;;;;;;;11.15;9.60;;;;;;;28.01;100.00;96638.97;5024753;28;20085;-51
2022/08/30 08:46:49;;;;;;;13.15;9.98;;;;;;;28.29;100.00;96642.59;5029362;28;20049;-52
2022/08/30 08:49:17;;;;;;;11.93;9.70;;;;;;;28.47;100.00;96645.00;5028716;28;20081;-51
2022/08/30 08:54:50;;;;;;;11.80;9.27;;;;;;;28.63;100.00;96635.94;5001936;28;20081;-50
2022/08/30 08:57:19;;;;;;;9.90;8.90;;;;;;;28.07;100.00;96643.38;5005986;28;20077;-49
2022/08/30 08:59:53;;;;;;;11.57;9.85;;;;;;;28.37;100.00;96647.56;5018090;28;20080;-54
2022/08/30 09:02:25;;;;;;;9.85;8.85;;;;;;;28.51;100.00;96645.28;5029115;28;20088;-52
2022/08/30 09:04:56;;;;;;;11.40;8.88;;;;;;;28.59;100.00;96648.38;5025815;28;20089;-50
2022/08/30 09:07:26;;;;;;;9.20;8.27;;;;;;;28.53;100.00;96643.97;5029089;28;20085;-54
2022/08/30 09:09:56;;;;;;;11.32;8.27;;;;;;;28.94;100.00;96646.28;5025989;28;20089;-51
2022/08/30 09:12:27;;;;;;;8.45;7.28;;;;;;;28.93;100.00;96637.31;5029243;28;20107;-48
2022/08/30 09:14:59;;;;;;;8.63;7.70;;;;;;;28.59;100.00;96636.69;5029467;28;20089;-54
2022/08/30 09:17:27;;;;;;;10.45;7.70;;;;;;;29.32;98.39;96631.72;5028694;28;20448;-49
2022/08/30 09:20:01;;;;;;;10.45;6.95;;;;;;;28.72;95.17;96627.34;5024218;28;20075;-49
2022/08/30 09:22:35;;;;;;;10.25;7.05;;;;;;;29.15;92.91;96625.56;5028214;28;20071;-57
2022/08/30 09:25:07;;;;;;;9.10;7.32;;;;;;;29.06;100.00;96636.09;5029311;28;20077;-51
2022/08/30 09:27:38;;;;;;;7.22;6.53;;;;;;;29.06;88.04;96630.69;5026916;28;20069;-53
2022/08/30 09:30:09;;;;;;;8.30;6.28;;;;;;;29.10;84.96;96629.91;5017771;28;20425;-49
2022/08/30 09:32:46;;;;;;;8.85;6.18;;;;;;;29.09;86.14;96632.88;5025692;28;20065;-47
2022/08/30 09:35:20;;;;;;;9.00;6.55;;;;;;;28.98;74.30;96634.66;5028798;28;20068;-52
2022/08/30 09:37:53;;;;;;;8.13;6.78;;;;;;;29.03;75.89;96629.28;5029255;28;20072;-50
2022/08/30 09:40:25;;;;;;;8.27;6.45;;;;;;;29.17;66.46;96623.44;5028831;28;20152;-51
2022/08/30 09:43:06;;;;;;;9.43;6.22;;;;;;;29.22;72.96;96620.78;5028321;28;20081;-52
2022/08/30 09:45:37;;;;;;;7.20;5.28;;;;;;;29.14;66.17;96615.78;5022996;28;20088;-50
2022/08/30 09:48:28;;;;;;;6.57;4.75;;;;;;;29.40;56.49;96612.22;5026788;28;20077;-49
2022/08/30 09:51:08;;;;;;;10.63;6.43;;;;;;;29.03;81.76;96615.72;5028437;28;20115;-52
2022/08/30 09:53:40;;;;;;;8.75;7.07;;;;;;;29.95;75.91;96613.66;5028040;28;20084;-48
2022/08/30 09:56:32;;;;;;;5.93;5.18;;;;;;;30.06;62.79;96605.53;5025658;28;20064;-48
2022/08/30 09:59:06;;;;;;;9.25;6.57;;;;;;;30.35;68.72;96601.34;5028862;28;20081;-54
2022/08/30 10:01:40;;;;;;;7.07;6.38;;;;;;;30.08;68.64;96600.66;5027279;28;20072;-49
2022/08/30 10:04:15;;;;;;;9.13;6.28;;;;;;;29.87;65.30;96605.16;5026523;28;20073;-53
2022/08/30 10:06:46;;;;;;;7.22;5.18;;;;;;;30.24;56.10;96600.47;5028989;28;20519;-53
2022/08/30 10:09:22;;;;;;;7.35;5.18;;;;;;;30.36;58.00;96594.00;5031869;28;20842;-52
2022/08/30 10:11:58;;;;;;;7.90;6.50;;;;;;;30.14;62.47;96588.69;5032229;28;20534;-47
2022/08/30 10:14:45;;;;;;;10.77;7.10;;;;;;;30.06;72.75;96589.22;5027193;28;20102;-47
2022/08/30 10:17:22;;;;;;;9.07;7.20;;;;;;;29.36;77.05;96583.13;5032642;28;20095;-50
2022/08/30 10:20:00;;;;;;;;;;;;;;;29.54;70.93;96582.69;5032638;28;20065;-51
2022/08/30 10:22:31;;;;;;;9.63;5.30;;;;;;;30.21;60.79;96576.53;5032109;28;19956;-54
2022/08/30 10:25:03;;;;;;;8.50;5.20;;;;;;;30.03;55.75;96579.69;5019034;28;20116;-52
2022/08/30 10:27:37;;;;;;;7.10;5.55;;;;;;;29.66;58.45;96579.78;5032186;28;20080;-54
2022/08/30 10:30:10;;;;;;;7.28;5.45;;;;;;;31.09;54.05;96559.25;5026664;28;20072;-49
2022/08/30 10:32:43;;;;;;;6.68;5.80;;;;;;;30.40;56.79;96568.69;5030949;28;20076;-52
2022/08/30 10:35:14;;;;;;;7.47;5.20;;;;;;;30.80;54.81;96566.31;5032194;28;20073;-55
2022/08/30 10:37:50;;;;;;;6.78;5.88;;;;;;;30.71;54.02;96563.31;5032293;28;20068;-49
2022/08/30 10:43:19;;;;;;;7.38;6.20;;;;;;;31.19;51.63;96563.88;5026221;28;20403;-52
2022/08/30 10:45:52;;;;;;;8.05;5.25;;;;;;;30.53;49.10;96561.09;5031816;28;20108;-51
2022/08/30 10:48:24;;;;;;;8.85;5.97;;;;;;;30.15;50.92;96560.44;5031767;28;20523;-50
2022/08/30 10:50:54;;;;;;;10.65;6.82;;;;;;;30.72;49.78;96557.56;5031802;28;20110;-50
2022/08/30 10:53:29;;;;;;;7.35;6.25;;;;;;;30.76;49.48;96547.00;5030159;28;20076;-52
2022/08/30 10:56:01;;;;;;;8.90;5.90;;;;;;;30.66;49.77;96544.22;5030276;28;20080;-52
2022/08/30 10:58:31;;;;;;;7.97;5.50;;;;;;;30.77;47.94;96548.66;5027945;28;20073;-52
2022/08/30 11:01:10;;;;;;;9.50;5.85;;;;;;;31.41;48.64;96544.53;5031159;28;20096;-51
2022/08/30 11:04:00;;;;;;;8.82;6.00;;;;;;;32.47;43.93;96544.44;5030905;28;20073;-54
2022/08/30 11:06:35;;;;;;;6.00;5.40;;;;;;;31.31;45.22;96552.69;5031475;28;20467;-53
2022/08/30 11:09:30;;;;;;;8.30;4.78;;;;;;;31.00;42.47;96541.81;5031501;28;20049;-47
2022/08/30 11:12:25;;;;;;;5.35;4.85;;;;;;;30.56;41.99;96545.06;5026052;28;20081;-49
2022/08/30 11:14:53;;;;;;;8.20;5.78;;;;;;;30.91;44.54;96543.47;5029086;28;20520;-49
2022/08/30 11:17:29;;;;;;;6.75;5.10;;;;;;;30.89;46.97;96542.91;5031338;28;20073;-49
2022/08/30 11:20:00;;;;;;;7.43;5.07;;;;;;;31.62;41.77;96540.66;5022847;28;20088;-49
2022/08/30 11:22:30;;;;;;;7.75;4.80;;;;;;;31.32;44.31;96544.28;5025895;28;20084;-50
2022/08/30 11:25:11;;;;;;;6.53;4.88;;;;;;;31.51;43.00;96536.31;5029794;28;20076;-53
2022/08/30 11:27:45;;;;;;;6.90;4.70;;;;;;;31.17;39.69;96542.34;5031205;28;20065;-54
2022/08/30 11:30:48;;;;;;;6.28;4.75;;;;;;;31.26;41.04;96536.34;5030323;28;20459;-57
2022/08/30 11:33:44;;;;;;;6.50;4.55;;;;;;;31.03;42.97;96535.00;5023037;28;20065;-52
2022/08/30 11:37:07;;;;;;;6.13;4.68;;;;;;;31.64;41.77;96529.47;5030639;28;20093;-52
2022/08/30 11:40:08;;;;;;;5.80;4.93;;;;;;;31.90;40.71;96531.06;5029225;28;20088;-51
2022/08/30 11:42:47;;;;;;;6.95;4.70;;;;;;;32.42;40.30;96528.91;5030454;28;20061;-51
2022/08/30 11:45:34;;;;;;;;;;;;;;;31.21;42.27;96537.16;5031708;28;20093;-49